createdAt,value
2024-03-12T00:00:16.566Z,6.00
2024-03-12T00:02:46.439Z,6.00
2024-03-12T00:05:19.660Z,6.00
2024-03-12T00:07:50.607Z,6.00
2024-03-12T00:10:20.514Z,6.00
2024-03-12T00:12:53.005Z,6.00
2024-03-12T00:15:24.347Z,6.10
2024-03-12T00:17:52.903Z,6.10
2024-03-12T00:20:19.617Z,6.10
2024-03-12T00:22:50.259Z,6.20
2024-03-12T00:25:22.085Z,6.20
2024-03-12T00:27:50.084Z,6.30
2024-03-12T00:30:19.944Z,6.30
2024-03-12T00:32:48.800Z,6.30
2024-03-12T00:35:15.736Z,6.40
2024-03-12T00:37:42.518Z,6.40
2024-03-12T00:40:13.569Z,6.50
2024-03-12T00:42:43.187Z,6.50
2024-03-12T00:45:12.832Z,6.50
2024-03-12T00:47:43.541Z,6.40
2024-03-12T00:50:12.678Z,6.40
2024-03-12T00:52:40.110Z,6.30
2024-03-12T00:55:10.532Z,6.30
2024-03-12T00:57:39.807Z,6.30
2024-03-12T01:00:17.637Z,6.30
2024-03-12T01:02:50.050Z,6.30
2024-03-12T01:05:22.675Z,6.30
2024-03-12T01:07:49.419Z,6.30
2024-03-12T01:10:21.994Z,6.30
2024-03-12T01:12:50.330Z,6.40
2024-03-12T01:15:19.830Z,6.30
2024-03-12T01:17:47.437Z,6.20
2024-03-12T01:20:17.778Z,6.20
2024-03-12T01:22:44.981Z,6.20
2024-03-12T01:25:11.915Z,6.20
2024-03-12T01:27:39.473Z,6.20
2024-03-12T01:30:18.029Z,6.20
2024-03-12T01:32:49.014Z,6.20
2024-03-12T01:35:16.124Z,6.10
2024-03-12T01:37:44.452Z,6.10
2024-03-12T01:40:22.993Z,6.10
2024-03-12T01:42:55.300Z,6.10
2024-03-12T01:45:23.972Z,6.20
2024-03-12T01:47:52.011Z,6.10
2024-03-12T01:50:23.139Z,6.10
2024-03-12T01:52:52.065Z,6.10
2024-03-12T01:55:20.023Z,6.10
2024-03-12T01:57:47.414Z,6.10
2024-03-12T02:00:15.342Z,6.10
2024-03-12T02:02:46.648Z,6.10
2024-03-12T02:05:14.288Z,6.10
2024-03-12T02:07:47.063Z,6.10
2024-03-12T02:10:15.177Z,6.10
2024-03-12T02:12:42.724Z,6.10
2024-03-12T02:15:09.878Z,6.20
2024-03-12T02:17:36.767Z,6.10
2024-03-12T02:20:09.590Z,6.20
2024-03-12T02:22:37.191Z,6.20
2024-03-12T02:25:07.839Z,6.20
2024-03-12T02:27:34.728Z,6.20
2024-03-12T02:30:01.641Z,6.20
2024-03-12T02:32:28.891Z,6.20
2024-03-12T02:34:55.703Z,6.30
2024-03-12T02:37:22.522Z,6.30
2024-03-12T02:39:49.427Z,6.30
2024-03-12T02:42:16.585Z,6.30
2024-03-12T02:44:43.779Z,6.30
2024-03-12T02:47:10.610Z,6.30
2024-03-12T02:49:38.076Z,6.30
2024-03-12T02:52:05.172Z,6.40
2024-03-12T02:54:32.193Z,6.40
2024-03-12T02:56:59.486Z,6.40
2024-03-12T02:59:28.504Z,6.40
2024-03-12T03:01:58.632Z,6.40
2024-03-12T03:04:25.636Z,6.50
2024-03-12T03:06:53.728Z,6.40
2024-03-12T03:09:21.669Z,6.50
2024-03-12T03:11:48.398Z,6.50
2024-03-12T03:14:15.511Z,6.50
2024-03-12T03:19:26.457Z,6.40
2024-03-12T03:21:53.366Z,6.50
2024-03-12T03:24:20.072Z,6.50
2024-03-12T03:26:46.844Z,6.50
2024-03-12T03:29:13.722Z,6.40
2024-03-12T03:31:42.723Z,6.40
2024-03-12T03:34:12.332Z,6.40
2024-03-12T03:36:41.082Z,6.50
2024-03-12T03:39:09.984Z,6.50
2024-03-12T03:41:36.997Z,6.50
2024-03-12T03:44:03.890Z,6.50
2024-03-12T03:46:30.869Z,6.50
2024-03-12T03:48:58.859Z,6.60
2024-03-12T03:51:27.122Z,6.60
2024-03-12T03:53:54.355Z,6.60
2024-03-12T03:56:23.064Z,6.60
2024-03-12T03:58:50.319Z,6.60
2024-03-12T04:01:17.356Z,6.70
2024-03-12T04:03:44.620Z,6.70
2024-03-12T04:06:12.192Z,6.70
2024-03-12T04:08:39.449Z,6.70
2024-03-12T04:11:06.423Z,6.60
2024-03-12T04:13:36.220Z,6.70
2024-03-12T04:16:03.185Z,6.70
2024-03-12T04:18:30.380Z,6.70
2024-03-12T04:20:57.317Z,6.70
2024-03-12T04:23:24.429Z,6.70
2024-03-12T04:25:51.313Z,6.70
2024-03-12T04:28:20.575Z,6.80
2024-03-12T04:30:50.123Z,6.70
2024-03-12T04:33:18.899Z,6.70
2024-03-12T04:35:46.456Z,6.70
2024-03-12T04:38:17.331Z,6.70
2024-03-12T04:40:44.985Z,6.70
2024-03-12T04:43:13.350Z,6.70
2024-03-12T04:45:42.837Z,6.70
2024-03-12T04:48:09.832Z,6.70
2024-03-12T04:50:36.817Z,6.70
2024-03-12T04:53:03.781Z,6.70
2024-03-12T04:55:30.591Z,6.70
2024-03-12T04:57:57.435Z,6.70
2024-03-12T05:00:24.335Z,6.70
2024-03-12T05:02:51.508Z,6.70
2024-03-12T05:05:19.704Z,6.70
2024-03-12T05:07:47.152Z,6.80
2024-03-12T05:10:14.174Z,6.80
2024-03-12T05:12:41.201Z,6.80
2024-03-12T05:15:11.430Z,6.80
2024-03-12T05:17:39.027Z,6.70
2024-03-12T05:20:19.773Z,6.70
2024-03-12T05:22:47.147Z,6.70
2024-03-12T05:25:40.747Z,6.80
2024-03-12T05:28:10.117Z,6.80
2024-03-12T05:30:38.310Z,6.80
2024-03-12T05:33:08.735Z,6.80
2024-03-12T05:35:35.633Z,6.80
2024-03-12T05:38:12.185Z,6.80
2024-03-12T05:40:58.223Z,6.80
2024-03-12T05:43:43.875Z,6.80
2024-03-12T05:46:29.232Z,6.70
2024-03-12T05:48:56.028Z,6.80
2024-03-12T05:51:23.015Z,6.70
2024-03-12T05:53:50.155Z,6.70
2024-03-12T05:56:19.083Z,6.70
2024-03-12T05:58:47.198Z,6.70
2024-03-12T06:01:14.598Z,6.80
2024-03-12T06:03:41.896Z,6.90
2024-03-12T06:06:09.130Z,6.90
2024-03-12T06:08:36.415Z,6.90
2024-03-12T06:11:03.760Z,6.90
2024-03-12T06:13:31.850Z,7.00
2024-03-12T06:15:58.765Z,6.90
2024-03-12T06:18:27.057Z,6.90
2024-03-12T06:20:53.910Z,6.90
2024-03-12T06:23:22.486Z,6.90
2024-03-12T06:25:49.712Z,6.90
2024-03-12T06:28:17.461Z,6.90
2024-03-12T06:30:44.887Z,7.00
2024-03-12T06:33:13.321Z,7.10
2024-03-12T06:35:41.309Z,7.00
2024-03-12T06:38:08.430Z,7.00
2024-03-12T06:40:35.702Z,7.10
2024-03-12T06:43:02.550Z,7.00
2024-03-12T06:45:29.729Z,7.00
2024-03-12T06:48:01.422Z,7.00
2024-03-12T06:50:28.360Z,7.00
2024-03-12T06:52:56.633Z,7.00
2024-03-12T06:55:28.285Z,7.00
2024-03-12T06:58:01.287Z,7.00
2024-03-12T07:00:38.476Z,7.00
2024-03-12T07:03:05.994Z,7.00
2024-03-12T07:05:37.544Z,7.10
2024-03-12T07:08:08.915Z,7.10
2024-03-12T07:10:38.492Z,7.10
2024-03-12T07:13:08.493Z,7.00
2024-03-12T07:15:37.421Z,7.10
2024-03-12T07:18:05.012Z,7.00
2024-03-12T07:20:32.407Z,7.00
2024-03-12T07:23:00.088Z,7.00
2024-03-12T07:25:27.261Z,7.10
2024-03-12T07:27:54.820Z,7.10
2024-03-12T07:30:26.102Z,7.00
2024-03-12T07:32:54.056Z,7.10
2024-03-12T07:35:21.068Z,7.10
2024-03-12T07:37:47.823Z,7.10
2024-03-12T07:40:17.306Z,7.20
2024-03-12T07:42:45.281Z,7.20
2024-03-12T07:45:14.170Z,7.20
2024-03-12T07:47:41.291Z,7.20
2024-03-12T07:50:09.669Z,7.10
2024-03-12T07:52:36.901Z,7.20
2024-03-12T07:55:04.581Z,7.20
2024-03-12T07:57:36.435Z,7.20
2024-03-12T08:00:06.771Z,7.20
2024-03-12T08:02:33.606Z,7.20
2024-03-12T08:05:00.353Z,7.20
2024-03-12T08:07:27.120Z,7.30
2024-03-12T08:09:54.057Z,7.30
2024-03-12T08:12:21.241Z,7.30
2024-03-12T08:14:47.956Z,7.20
2024-03-12T08:17:15.084Z,7.30
2024-03-12T08:19:44.028Z,7.30
2024-03-12T08:22:11.251Z,7.40
2024-03-12T08:24:41.024Z,7.40
2024-03-12T08:27:08.344Z,7.30
2024-03-12T08:29:35.224Z,7.40
2024-03-12T08:32:02.321Z,7.50
2024-03-12T08:34:29.352Z,7.60
2024-03-12T08:36:57.008Z,7.60
2024-03-12T08:39:24.043Z,7.50
2024-03-12T08:41:50.896Z,7.60
2024-03-12T08:44:17.667Z,7.60
2024-03-12T08:46:44.907Z,7.70
2024-03-12T08:49:14.633Z,7.70
2024-03-12T08:51:41.654Z,7.70
2024-03-12T08:54:10.376Z,7.70
2024-03-12T08:56:37.529Z,7.60
2024-03-12T08:59:06.554Z,7.60
2024-03-12T09:01:33.931Z,7.60
2024-03-12T09:04:01.941Z,7.60
2024-03-12T09:06:29.117Z,7.60
2024-03-12T09:08:56.886Z,7.60
2024-03-12T09:11:23.745Z,7.60
2024-03-12T09:13:51.215Z,7.60
2024-03-12T09:16:18.113Z,7.70
2024-03-12T09:18:45.324Z,7.70
2024-03-12T09:21:16.292Z,7.70
2024-03-12T09:23:53.387Z,7.70
2024-03-12T09:26:29.387Z,7.60
2024-03-12T09:28:56.499Z,7.50
2024-03-12T09:31:23.668Z,7.50
2024-03-12T09:33:53.131Z,7.50
2024-03-12T09:36:21.624Z,7.60
2024-03-12T09:38:52.817Z,7.60
2024-03-12T09:41:25.126Z,7.50
2024-03-12T09:43:53.281Z,7.40
2024-03-12T09:46:21.508Z,7.30
2024-03-12T09:48:50.308Z,7.30
2024-03-12T09:51:17.282Z,7.30
2024-03-12T09:53:44.150Z,7.20
2024-03-12T09:56:16.441Z,7.20
2024-03-12T09:58:44.514Z,7.10
2024-03-12T10:01:11.644Z,7.00
2024-03-12T10:03:38.850Z,7.00
2024-03-12T10:06:07.679Z,7.10
2024-03-12T10:08:35.650Z,7.00
2024-03-12T10:11:09.228Z,7.10
2024-03-12T10:13:39.443Z,7.10
2024-03-12T10:16:08.642Z,6.90
2024-03-12T10:18:36.387Z,7.00
2024-03-12T10:21:03.532Z,6.80
2024-03-12T10:23:33.317Z,6.80
2024-03-12T10:26:20.470Z,6.80
2024-03-12T10:28:47.715Z,6.80
2024-03-12T10:31:15.847Z,6.70
2024-03-12T10:33:49.929Z,6.70
2024-03-12T10:36:32.221Z,6.60
2024-03-12T10:38:59.646Z,6.70
2024-03-12T10:41:26.889Z,6.70
2024-03-12T10:43:56.763Z,6.70
2024-03-12T10:46:25.113Z,6.60
2024-03-12T10:48:52.577Z,6.80
2024-03-12T10:51:20.658Z,6.90
2024-03-12T10:53:54.713Z,7.00
2024-03-12T10:56:22.939Z,7.10
2024-03-12T10:58:50.322Z,7.20
2024-03-12T11:01:21.018Z,7.20
2024-03-12T11:03:49.264Z,7.20
2024-03-12T11:06:16.623Z,7.20
2024-03-12T11:08:44.957Z,7.40
2024-03-12T11:11:11.771Z,7.60
2024-03-12T11:13:39.337Z,7.80
2024-03-12T11:16:14.781Z,8.00
2024-03-12T11:18:42.315Z,8.20
2024-03-12T11:21:14.956Z,8.50
2024-03-12T11:23:42.159Z,8.60
2024-03-12T11:26:09.534Z,8.70
2024-03-12T11:28:51.079Z,8.70
2024-03-12T11:31:21.309Z,8.90
2024-03-12T11:33:53.301Z,8.50
2024-03-12T11:36:22.768Z,8.40
2024-03-12T11:38:53.167Z,8.20
2024-03-12T11:41:20.710Z,8.20
2024-03-12T11:43:48.943Z,8.30
2024-03-12T11:46:23.249Z,8.40
2024-03-12T11:48:50.288Z,8.30
2024-03-12T11:51:17.226Z,8.20
2024-03-12T11:53:46.475Z,8.10
2024-03-12T11:56:19.698Z,7.90
2024-03-12T11:59:00.119Z,8.00
2024-03-12T12:01:34.449Z,8.00
2024-03-12T12:04:17.000Z,8.00
2024-03-12T12:06:46.162Z,7.90
2024-03-12T12:09:13.058Z,7.80
2024-03-12T12:11:40.477Z,7.80
2024-03-12T12:14:09.352Z,7.60
2024-03-12T12:16:40.348Z,7.60
2024-03-12T12:19:12.077Z,7.70
2024-03-12T12:21:44.197Z,7.60
2024-03-12T12:24:12.326Z,7.50
2024-03-12T12:26:40.054Z,7.50
2024-03-12T12:29:08.818Z,7.40
2024-03-12T12:31:40.439Z,7.40
2024-03-12T12:34:09.996Z,7.40
2024-03-12T12:36:41.602Z,7.40
2024-03-12T12:39:11.922Z,7.30
2024-03-12T12:41:43.985Z,7.40
2024-03-12T12:44:17.984Z,7.40
2024-03-12T12:46:46.712Z,7.40
2024-03-12T12:49:15.533Z,7.40
2024-03-12T12:51:48.609Z,7.40
2024-03-12T12:54:20.140Z,7.30
2024-03-12T12:56:47.812Z,7.40
2024-03-12T12:59:16.347Z,7.50
2024-03-12T13:01:43.675Z,7.50
2024-03-12T13:04:28.031Z,7.60
2024-03-12T13:06:57.294Z,7.60
2024-03-12T13:09:28.811Z,7.40
2024-03-12T13:11:57.065Z,7.50
2024-03-12T13:14:24.544Z,7.50
2024-03-12T13:16:51.268Z,7.40
2024-03-12T13:19:19.881Z,7.30
2024-03-12T13:21:49.440Z,7.30
2024-03-12T13:24:16.750Z,7.40
2024-03-12T13:26:43.506Z,7.50
2024-03-12T13:29:10.321Z,7.60
2024-03-12T13:31:37.053Z,7.60
2024-03-12T13:34:03.970Z,7.70
2024-03-12T13:36:31.892Z,7.90
2024-03-12T13:38:58.731Z,8.00
2024-03-12T13:41:26.131Z,8.00
2024-03-12T13:43:53.650Z,8.00
2024-03-12T13:46:21.142Z,8.10
2024-03-12T13:48:48.379Z,8.10
2024-03-12T13:51:15.303Z,8.00
2024-03-12T13:53:44.130Z,8.10
2024-03-12T13:56:13.926Z,8.20
2024-03-12T13:58:42.940Z,8.30
2024-03-12T14:01:13.895Z,8.30
2024-03-12T14:03:41.840Z,8.20
2024-03-12T14:06:10.282Z,8.20
2024-03-12T14:08:37.499Z,8.20
2024-03-12T14:11:04.655Z,8.20
2024-03-12T14:13:33.232Z,8.10
2024-03-12T14:16:00.594Z,8.20
2024-03-12T14:18:28.235Z,8.10
2024-03-12T14:20:56.165Z,8.00
2024-03-12T14:23:23.239Z,8.00
2024-03-12T14:25:50.446Z,8.00
2024-03-12T14:28:17.413Z,8.00
2024-03-12T14:30:46.025Z,8.00
2024-03-12T14:33:13.385Z,8.10
2024-03-12T14:35:40.283Z,8.10
2024-03-12T14:38:07.395Z,8.10
2024-03-12T14:40:34.231Z,8.20
2024-03-12T14:43:01.865Z,8.20
2024-03-12T14:45:30.793Z,8.10
2024-03-12T14:47:58.027Z,8.20
2024-03-12T14:50:25.216Z,8.20
2024-03-12T14:52:52.172Z,8.20
2024-03-12T14:55:19.034Z,8.20
2024-03-12T14:57:46.103Z,8.20
2024-03-12T15:00:18.196Z,8.20
2024-03-12T15:02:46.950Z,8.20
2024-03-12T15:05:14.005Z,8.10
2024-03-12T15:07:43.551Z,8.10
2024-03-12T15:10:11.492Z,8.20
2024-03-12T15:12:41.104Z,8.20
2024-03-12T15:15:12.582Z,8.20
2024-03-12T15:17:45.999Z,8.20
2024-03-12T15:20:16.470Z,8.20
2024-03-12T15:22:44.180Z,8.20
2024-03-12T15:25:13.983Z,8.20
2024-03-12T15:27:43.029Z,8.30
2024-03-12T15:30:10.940Z,8.40
2024-03-12T15:32:39.628Z,8.50
2024-03-12T15:35:07.465Z,8.50
2024-03-12T15:37:36.717Z,8.50
2024-03-12T15:40:08.981Z,8.50
2024-03-12T15:42:40.194Z,8.50
2024-03-12T15:45:11.592Z,8.50
2024-03-12T15:47:44.219Z,8.50
2024-03-12T15:50:16.849Z,8.50
2024-03-12T15:52:44.263Z,8.50
2024-03-12T15:55:11.691Z,8.50
2024-03-12T15:57:41.666Z,8.50
2024-03-12T16:00:10.016Z,8.40
2024-03-12T16:02:37.136Z,8.30
2024-03-12T16:05:06.771Z,8.30
2024-03-12T16:07:37.034Z,8.20
2024-03-12T16:10:09.453Z,8.20
2024-03-12T16:12:37.101Z,8.20
2024-03-12T16:15:06.789Z,8.20
2024-03-12T16:17:36.139Z,8.30
2024-03-12T16:20:13.521Z,8.30
2024-03-12T16:22:41.486Z,8.40
2024-03-12T16:25:09.012Z,8.40
2024-03-12T16:27:35.816Z,8.40
2024-03-12T16:30:04.616Z,8.40
2024-03-12T16:32:31.839Z,8.40
2024-03-12T16:34:59.093Z,8.40
2024-03-12T16:37:25.936Z,8.30
2024-03-12T16:39:52.747Z,8.20
2024-03-12T16:42:19.517Z,8.20
2024-03-12T16:44:46.620Z,8.10
2024-03-12T16:47:13.907Z,8.10
2024-03-12T16:49:40.709Z,8.00
2024-03-12T16:52:07.756Z,8.00
2024-03-12T16:54:36.749Z,8.00
2024-03-12T16:57:03.919Z,7.90
2024-03-12T16:59:33.985Z,7.80
2024-03-12T17:02:01.974Z,7.80
2024-03-12T17:04:29.406Z,7.70
2024-03-12T17:06:59.530Z,7.70
2024-03-12T17:09:26.707Z,7.60
2024-03-12T17:11:53.940Z,7.60
2024-03-12T17:14:27.664Z,7.60
2024-03-12T17:17:06.544Z,7.50
2024-03-12T17:19:35.492Z,7.50
2024-03-12T17:22:03.314Z,7.50
2024-03-12T17:24:31.963Z,7.40
2024-03-12T17:26:58.936Z,7.40
2024-03-12T17:29:26.675Z,7.40
2024-03-12T17:31:56.537Z,7.30
2024-03-12T17:34:23.553Z,7.40
2024-03-12T17:36:54.318Z,7.30
2024-03-12T17:39:24.413Z,7.30
2024-03-12T17:41:51.578Z,7.20
2024-03-12T17:44:18.699Z,7.30
2024-03-12T17:46:46.007Z,7.20
2024-03-12T17:49:18.005Z,7.20
2024-03-12T17:51:48.249Z,7.20
2024-03-12T17:54:18.591Z,7.20
2024-03-12T17:56:49.370Z,7.20
2024-03-12T17:59:20.125Z,7.20
2024-03-12T18:01:47.960Z,7.20
2024-03-12T18:04:15.415Z,7.20
2024-03-12T18:06:43.634Z,7.10
2024-03-12T18:09:16.629Z,7.10
2024-03-12T18:11:44.077Z,7.00
2024-03-12T18:14:11.631Z,7.10
2024-03-12T18:16:39.042Z,7.10
2024-03-12T18:19:09.245Z,7.00
2024-03-12T18:21:37.686Z,7.00
2024-03-12T18:24:05.663Z,6.90
2024-03-12T18:26:34.287Z,6.90
2024-03-12T18:29:02.116Z,6.90
2024-03-12T18:31:28.945Z,6.90
2024-03-12T18:33:56.872Z,6.90
2024-03-12T18:36:23.652Z,6.90
2024-03-12T18:38:51.142Z,6.90
2024-03-12T18:41:18.458Z,6.80
2024-03-12T18:43:45.492Z,6.80
2024-03-12T18:46:12.266Z,6.80
2024-03-12T18:48:39.355Z,6.70
2024-03-12T18:51:06.984Z,6.80
2024-03-12T18:53:35.457Z,6.80
2024-03-12T18:56:04.119Z,6.70
2024-03-12T18:58:31.558Z,6.70
2024-03-12T19:00:59.256Z,6.80
2024-03-12T19:03:43.592Z,6.80
2024-03-12T19:06:19.049Z,6.70
2024-03-12T19:08:53.215Z,6.70
2024-03-12T19:11:21.072Z,6.70
2024-03-12T19:13:48.908Z,6.70
2024-03-12T19:16:18.107Z,6.70
2024-03-12T19:18:49.469Z,6.70
2024-03-12T19:21:17.903Z,6.70
2024-03-12T19:23:49.516Z,6.80
2024-03-12T19:26:18.395Z,6.80
2024-03-12T19:28:46.409Z,6.80
2024-03-12T19:31:13.670Z,6.70
2024-03-12T19:33:40.981Z,6.80
2024-03-12T19:36:08.351Z,6.70
2024-03-12T19:38:35.495Z,6.70
2024-03-12T19:41:02.600Z,6.70
2024-03-12T19:43:30.041Z,6.70
2024-03-12T19:45:59.838Z,6.70
2024-03-12T19:48:28.450Z,6.70
2024-03-12T19:50:56.601Z,6.70
2024-03-12T19:53:23.608Z,6.60
2024-03-12T19:55:52.341Z,6.70
2024-03-12T19:58:19.849Z,6.70
2024-03-12T20:00:48.533Z,6.60
2024-03-12T20:03:19.078Z,6.60
2024-03-12T20:05:45.901Z,6.70
2024-03-12T20:08:13.393Z,6.70
2024-03-12T20:10:40.344Z,6.70
2024-03-12T20:13:07.655Z,6.70
2024-03-12T20:15:34.656Z,6.60
2024-03-12T20:18:02.495Z,6.70
2024-03-12T20:20:29.653Z,6.60
2024-03-12T20:22:56.940Z,6.70
2024-03-12T20:25:25.300Z,6.60
2024-03-12T20:27:55.535Z,6.70
2024-03-12T20:30:28.667Z,6.60
2024-03-12T20:33:00.059Z,6.60
2024-03-12T20:35:32.895Z,6.60
2024-03-12T20:37:59.848Z,6.70
2024-03-12T20:40:28.764Z,6.70
2024-03-12T20:43:01.222Z,6.60
2024-03-12T20:45:28.438Z,6.70
2024-03-12T20:47:55.650Z,6.70
2024-03-12T20:50:22.669Z,6.70
2024-03-12T20:52:50.143Z,6.70
2024-03-12T20:55:17.453Z,6.70
2024-03-12T20:57:48.432Z,6.70
2024-03-12T21:00:25.360Z,6.70
2024-03-12T21:02:55.059Z,6.70
2024-03-12T21:05:22.319Z,6.70
2024-03-12T21:07:51.542Z,6.70
2024-03-12T21:10:18.681Z,6.70
2024-03-12T21:12:51.109Z,6.70
2024-03-12T21:15:19.242Z,6.70
2024-03-12T21:17:46.505Z,6.70
2024-03-12T21:20:25.860Z,6.70
2024-03-12T21:22:52.841Z,6.70
2024-03-12T21:25:20.937Z,6.80
2024-03-12T21:27:48.381Z,6.70
2024-03-12T21:30:17.433Z,6.70
2024-03-12T21:32:44.840Z,6.60
2024-03-12T21:35:13.128Z,6.70
2024-03-12T21:37:40.111Z,6.70
2024-03-12T21:40:12.722Z,6.70
2024-03-12T21:42:40.389Z,6.70
2024-03-12T21:45:07.614Z,6.80
2024-03-12T21:47:37.972Z,6.80
2024-03-12T21:50:09.596Z,6.70
2024-03-12T21:52:37.279Z,6.70
2024-03-12T21:55:07.170Z,6.80
2024-03-12T21:57:34.711Z,6.80
2024-03-12T22:00:01.526Z,6.80
2024-03-12T22:02:28.459Z,6.80
2024-03-12T22:04:55.272Z,6.80
2024-03-12T22:07:25.291Z,6.80
2024-03-12T22:09:52.126Z,6.80
2024-03-12T22:12:18.927Z,6.80
2024-03-12T22:14:45.800Z,6.80
2024-03-12T22:17:12.462Z,6.80
2024-03-12T22:19:40.045Z,6.90
2024-03-12T22:22:09.163Z,6.80
2024-03-12T22:24:38.883Z,6.90
2024-03-12T22:27:08.060Z,6.90
2024-03-12T22:29:34.990Z,6.90
2024-03-12T22:32:05.863Z,6.90
2024-03-12T22:34:34.963Z,6.90
2024-03-12T22:37:02.615Z,6.90
2024-03-12T22:39:32.094Z,7.00
2024-03-12T22:41:59.088Z,6.90
2024-03-12T22:44:26.169Z,6.90
2024-03-12T22:46:53.069Z,6.90
2024-03-12T22:49:19.978Z,7.00
2024-03-12T22:51:49.457Z,7.00
2024-03-12T22:54:16.887Z,7.00
2024-03-12T22:56:43.987Z,6.90
2024-03-12T22:59:11.731Z,6.90
2024-03-12T23:01:40.818Z,6.90
2024-03-12T23:04:08.261Z,7.00
2024-03-12T23:06:36.270Z,7.00
2024-03-12T23:09:05.395Z,7.00
2024-03-12T23:11:32.318Z,7.00
2024-03-12T23:13:59.150Z,7.00
2024-03-12T23:16:26.132Z,7.00
2024-03-12T23:18:54.475Z,7.00
2024-03-12T23:21:21.348Z,7.00
2024-03-12T23:23:48.137Z,7.00
2024-03-12T23:26:17.879Z,7.00
2024-03-12T23:28:45.332Z,7.00
2024-03-12T23:31:12.403Z,7.00
2024-03-12T23:33:40.357Z,7.00
2024-03-12T23:36:10.994Z,7.00
2024-03-12T23:38:37.720Z,7.00
2024-03-12T23:41:04.597Z,7.00
2024-03-12T23:43:31.950Z,7.00
2024-03-12T23:45:58.963Z,7.10
2024-03-12T23:48:26.008Z,7.10
2024-03-12T23:50:54.707Z,7.10
2024-03-12T23:53:21.787Z,7.00
2024-03-12T23:55:48.701Z,7.10
2024-03-12T23:58:16.678Z,7.10
